This is the latest recevied weather packets stored in our database for station/object WB8ZGM-13. If no packets are shown the sender has not sent any weather packets the latest 10 day(s).
| Time | Temp. | Humidity | Pressure | Rain* | Wind** | Luminosity | Snow |
|---|---|---|---|---|---|---|---|
| 1777752100 | 19.44° C | 44% | 997.8 hPa | 0 mm | - | - | - |
| 1777751170 | 19.44° C | 44% | 997.8 hPa | 0 mm | - | - | - |
| 1777750240 | 21.11° C | 42% | 998 hPa | 0 mm | - | - | - |
| 1777749310 | 18.89° C | 47% | 998.1 hPa | 0 mm | - | - | - |
| 1777748410 | 18.89° C | 44% | 998.2 hPa | 0 mm | - | - | - |
| 1777747509 | 20.56° C | 41% | 998.2 hPa | 0 mm | - | - | - |
| 1777746609 | 18.89° C | 42% | 998.3 hPa | 0 mm | - | - | - |
| 1777745679 | 20° C | 42% | 998.5 hPa | 0 mm | - | - | - |
| 1777744779 | 20° C | 39% | 998.6 hPa | 0 mm | - | - | - |
| 1777743849 | 21.11° C | 40% | 998.7 hPa | 0 mm | - | - | - |
| 1777742949 | 20.56° C | 40% | 998.8 hPa | 0 mm | - | - | - |
| 1777742049 | 19.44° C | 42% | 999 hPa | 0 mm | - | - | - |
| 1777741119 | 20° C | 43% | 999 hPa | 0 mm | - | - | - |
| 1777740189 | 20° C | 40% | 999.2 hPa | 0 mm | - | - | - |
| 1777739259 | 19.44° C | 42% | 999.3 hPa | 0 mm | - | - | - |
| 1777738329 | 19.44° C | 43% | 999.4 hPa | 0 mm | - | - | - |
| 1777737399 | 18.89° C | 42% | 999.3 hPa | 0 mm | - | - | - |
| 1777736499 | 18.33° C | 45% | 999.2 hPa | 0 mm | - | - | - |
| 1777735598 | 18.33° C | 44% | 999.4 hPa | 0 mm | - | - | - |
| 1777734669 | 17.78° C | 47% | 999.6 hPa | 0 mm | - | - | - |
| 1777733739 | 17.78° C | 49% | 999.5 hPa | 0 mm | - | - | - |
| 1777732838 | 17.22° C | 53% | 999.3 hPa | 0 mm | - | - | - |
| 1777731909 | 17.22° C | 52% | 999.3 hPa | 0 mm | - | - | - |
| 1777730979 | 20.56° C | 43% | 999.3 hPa | 0 mm | - | - | - |
| 1777730049 | 19.44° C | 47% | 999.3 hPa | 0 mm | - | - | - |
* Rain latest hour (hover to see other rain measurements)
** Current wind speed in m/s (hover to see current wind gust speed)